createdAt,value
2022-07-29T00:21:49.946Z,121.13
2022-07-29T00:46:54.093Z,122.10
2022-07-29T01:11:58.543Z,122.45
2022-07-29T01:37:08.298Z,121.38
2022-07-29T02:02:13.210Z,126.07
2022-07-29T02:27:18.244Z,120.70
2022-07-29T02:52:25.241Z,128.20
2022-07-29T03:17:29.385Z,120.82
2022-07-29T03:42:34.881Z,126.28
2022-07-29T04:07:39.243Z,123.28
2022-07-29T04:32:43.368Z,129.95
2022-07-29T04:57:47.526Z,134.40
2022-07-29T05:22:51.935Z,133.50
2022-07-29T05:47:56.196Z,125.15
2022-07-29T06:13:00.286Z,126.13
2022-07-29T06:38:06.346Z,127.80
2022-07-29T07:03:29.075Z,129.05
2022-07-29T07:28:33.418Z,135.02
2022-07-29T07:53:37.765Z,136.70
2022-07-29T08:18:42.574Z,134.75
2022-07-29T08:43:46.683Z,131.98
2022-07-29T09:08:51.390Z,135.68
2022-07-29T09:33:56.863Z,131.50
2022-07-29T09:59:08.779Z,133.63
2022-07-29T10:24:14.844Z,137.40
2022-07-29T10:49:19.746Z,131.20
2022-07-29T11:14:54.280Z,131.65
2022-07-29T11:40:21.451Z,133.98
2022-07-29T12:05:36.828Z,139.40
2022-07-29T12:30:45.735Z,136.52
2022-07-29T12:55:53.386Z,135.25
2022-07-29T13:20:58.414Z,137.02
2022-07-29T13:46:02.689Z,141.95
2022-07-29T14:11:08.249Z,138.25
2022-07-29T14:36:12.424Z,134.25
2022-07-29T15:01:16.737Z,133.85
2022-07-29T15:26:21.369Z,134.70
2022-07-29T15:51:26.553Z,134.48
2022-07-29T16:16:30.686Z,134.88
2022-07-29T16:41:35.175Z,134.30
2022-07-29T17:06:39.965Z,133.55
2022-07-29T17:31:44.306Z,131.10
2022-07-29T17:56:48.618Z,132.10
2022-07-29T18:21:55.276Z,132.00
2022-07-29T18:47:01.243Z,138.82
2022-07-29T19:12:07.480Z,129.85
2022-07-29T19:37:11.807Z,126.25
2022-07-29T20:02:16.515Z,127.53
2022-07-29T20:27:20.932Z,127.18
2022-07-29T20:52:25.886Z,130.30
2022-07-29T21:17:31.510Z,130.45
2022-07-29T21:42:35.848Z,131.20
2022-07-29T22:07:55.600Z,125.22
2022-07-29T22:33:00.694Z,124.25
2022-07-29T22:58:04.837Z,126.00
2022-07-29T23:23:08.940Z,122.57
2022-07-29T23:48:13.020Z,128.38
